Time;durP1;ratioP1;P1;durP2;ratioP2;P2;SDS_P1;SDS_P2;PMS_P1;PMS_P2;Temp;Humidity;BMP_temperature;BMP_pressure;BME280_temperature;BME280_humidity;BME280_pressure;Samples;Min_cycle;Max_cycle;Signal;HPM_P1;HPM_P2
2023/06/16 00:01:34;;;;;;;2.08;1.60;;;;;;;14.88;81.31;96285.28;5055991;28;20240;-67
2023/06/16 00:04:03;;;;;;;7.80;1.65;;;;;;;14.63;82.90;96278.09;5053119;28;20212;-67
2023/06/16 00:06:29;;;;;;;3.63;2.13;;;;;;;14.63;83.21;96278.09;5055681;28;20200;-66
2023/06/16 00:09:00;;;;;;;2.60;2.03;;;;;;;14.93;81.75;96276.72;5053345;28;20291;-67
2023/06/16 00:11:28;;;;;;;4.93;1.95;;;;;;;14.94;81.14;96275.69;5055541;28;20220;-67
2023/06/16 00:13:55;;;;;;;3.42;1.77;;;;;;;14.80;81.28;96280.19;5055158;28;20197;-66
2023/06/16 00:16:22;;;;;;;3.42;1.33;;;;;;;14.55;82.19;96275.63;5055883;28;21167;-67
2023/06/16 00:18:51;;;;;;;3.78;1.35;;;;;;;14.36;84.75;96275.59;5054876;28;20196;-68
2023/06/16 00:21:23;;;;;;;3.05;1.50;;;;;;;14.65;83.40;96278.72;5055254;28;20220;-66
2023/06/16 00:23:50;;;;;;;2.90;1.60;;;;;;;14.68;83.16;96281.78;5055201;28;20738;-66
2023/06/16 00:26:18;;;;;;;3.00;1.67;;;;;;;14.69;82.80;96274.66;5055572;28;20205;-67
2023/06/16 00:28:44;;;;;;;3.30;1.77;;;;;;;14.49;81.88;96278.28;5054959;28;20200;-66
2023/06/16 00:31:11;;;;;;;2.85;1.58;;;;;;;14.53;82.57;96282.16;5055503;28;20225;-67
2023/06/16 00:33:37;;;;;;;2.88;1.55;;;;;;;14.39;82.26;96280.47;5055348;28;20680;-66
2023/06/16 00:36:04;;;;;;;4.88;2.55;;;;;;;14.48;83.09;96276.63;5055668;28;20904;-68
2023/06/16 00:38:30;;;;;;;1.35;1.23;;;;;;;14.46;82.33;96276.84;5055395;28;20200;-67
2023/06/16 00:40:56;;;;;;;4.40;1.88;;;;;;;14.40;81.20;96271.50;5055239;28;20220;-66
2023/06/16 00:43:24;;;;;;;2.35;1.30;;;;;;;14.33;82.30;96270.66;5054768;28;20630;-66
2023/06/16 00:45:52;;;;;;;3.70;1.95;;;;;;;14.39;82.30;96262.72;5054705;28;21128;-66
2023/06/16 00:48:18;;;;;;;2.30;1.50;;;;;;;14.15;83.09;96270.38;5054915;28;20215;-67
2023/06/16 00:50:46;;;;;;;3.03;1.45;;;;;;;14.17;82.99;96271.03;5055616;28;20593;-66
2023/06/16 00:53:12;;;;;;;3.85;1.98;;;;;;;13.88;84.77;96273.91;5055535;28;20205;-67
2023/06/16 00:55:40;;;;;;;4.18;1.70;;;;;;;14.09;84.48;96268.53;5054971;28;20211;-67
2023/06/16 00:58:07;;;;;;;1.52;1.33;;;;;;;14.23;83.22;96262.25;5055028;28;20574;-66
2023/06/16 01:00:36;;;;;;;2.25;1.30;;;;;;;14.27;82.19;96266.97;5055264;28;20236;-66
2023/06/16 01:03:04;;;;;;;4.38;1.33;;;;;;;13.98;83.15;96274.38;5059793;28;20225;-66
2023/06/16 01:05:31;;;;;;;2.25;1.52;;;;;;;14.10;82.59;96263.03;5058576;28;20208;-66
2023/06/16 01:08:06;;;;;;;3.40;1.42;;;;;;;14.16;82.63;96270.19;5058630;28;20196;-66
2023/06/16 01:10:37;;;;;;;2.58;1.38;;;;;;;14.07;85.00;96267.88;5058471;28;20227;-67
2023/06/16 01:13:14;;;;;;;3.08;1.23;;;;;;;14.07;84.89;96265.22;5058438;28;20596;-66
2023/06/16 01:15:45;;;;;;;3.53;1.77;;;;;;;13.99;86.00;96257.47;5058315;28;20253;-67
2023/06/16 01:18:14;;;;;;;1.80;1.40;;;;;;;13.86;86.11;96273.28;5058723;28;20211;-66
2023/06/16 01:20:48;;;;;;;2.67;1.70;;;;;;;13.85;87.12;96269.00;5057551;28;21062;-66
2023/06/16 01:23:27;;;;;;;3.35;1.42;;;;;;;13.83;86.87;96273.66;5058345;28;20228;-66
2023/06/16 01:25:58;;;;;;;3.22;1.98;;;;;;;13.96;85.81;96265.78;5058186;28;20902;-66
2023/06/16 01:28:27;;;;;;;2.92;1.40;;;;;;;13.95;84.95;96263.34;5058783;28;20216;-66
2023/06/16 01:30:54;;;;;;;5.38;2.65;;;;;;;13.98;83.55;96269.06;5057346;28;20217;-66
2023/06/16 01:33:23;;;;;;;2.90;1.83;;;;;;;13.89;85.01;96267.59;5058887;28;20219;-67
2023/06/16 01:35:50;;;;;;;2.70;1.33;;;;;;;13.90;85.12;96271.88;5058463;28;20201;-66
2023/06/16 01:38:18;;;;;;;2.60;1.25;;;;;;;13.88;84.32;96270.44;5058241;28;20254;-67
2023/06/16 01:40:45;;;;;;;2.45;1.40;;;;;;;13.88;83.13;96271.25;5058675;28;20224;-67
2023/06/16 01:43:13;;;;;;;1.98;1.15;;;;;;;13.87;83.33;96264.31;5058301;28;20700;-67
2023/06/16 01:45:42;;;;;;;2.60;1.58;;;;;;;13.67;83.81;96265.22;5057498;28;20205;-66
2023/06/16 01:48:08;;;;;;;1.58;1.05;;;;;;;13.73;84.51;96254.66;5058561;28;20200;-66
2023/06/16 01:50:35;;;;;;;4.35;2.28;;;;;;;13.67;84.93;96263.41;5058714;28;20229;-66
2023/06/16 01:53:02;;;;;;;2.88;1.88;;;;;;;13.66;84.07;96266.25;5057728;28;20283;-66
2023/06/16 01:55:28;;;;;;;1.75;1.20;;;;;;;13.65;83.86;96259.31;5058260;28;20200;-66
2023/06/16 01:57:56;;;;;;;2.95;2.03;;;;;;;13.57;83.57;96262.94;5058210;28;20295;-66
2023/06/16 02:00:29;;;;;;;2.97;1.60;;;;;;;13.65;82.94;96260.13;5056924;28;20607;-66
2023/06/16 02:03:04;;;;;;;2.40;1.35;;;;;;;13.55;83.53;96257.00;5057385;28;20224;-66
2023/06/16 02:05:32;;;;;;;3.33;2.22;;;;;;;13.52;84.60;96252.09;5058219;28;20212;-66
2023/06/16 02:08:02;;;;;;;2.15;1.67;;;;;;;13.48;85.25;96256.16;5057366;28;20676;-66
2023/06/16 02:10:28;;;;;;;3.42;2.42;;;;;;;13.35;84.99;96257.88;5057737;28;20601;-66
2023/06/16 02:12:56;;;;;;;2.33;1.67;;;;;;;13.33;85.76;96257.28;5055960;28;20200;-67
2023/06/16 02:15:24;;;;;;;2.85;1.42;;;;;;;13.22;88.17;96262.28;5057933;28;20215;-67
2023/06/16 02:17:52;;;;;;;19.35;2.55;;;;;;;13.02;88.47;96269.22;5057194;28;20212;-66
2023/06/16 02:20:19;;;;;;;3.00;1.83;;;;;;;13.13;89.02;96266.06;5057597;28;20232;-66
2023/06/16 02:22:46;;;;;;;1.58;1.48;;;;;;;13.03;88.57;96268.22;5057620;28;20228;-66
2023/06/16 02:25:12;;;;;;;3.30;1.85;;;;;;;13.02;88.15;96258.66;5057643;28;20231;-66
2023/06/16 02:27:40;;;;;;;4.70;1.63;;;;;;;13.07;86.56;96256.25;5057046;28;20200;-67
2023/06/16 02:30:08;;;;;;;2.78;1.75;;;;;;;13.12;86.05;96259.97;5057848;28;20219;-66
2023/06/16 02:32:36;;;;;;;2.58;1.50;;;;;;;13.17;86.44;96256.75;5056934;28;20207;-66
2023/06/16 02:35:03;;;;;;;3.13;1.38;;;;;;;12.79;88.61;96260.66;5057720;28;20200;-67
2023/06/16 02:37:30;;;;;;;3.00;1.75;;;;;;;12.68;90.00;96261.19;5056809;28;20224;-67
2023/06/16 02:39:56;;;;;;;2.45;1.55;;;;;;;12.86;89.64;96261.56;5053283;28;20216;-67
2023/06/16 02:42:23;;;;;;;11.00;1.92;;;;;;;13.05;86.58;96256.44;5056478;28;20229;-67
2023/06/16 02:44:49;;;;;;;7.22;1.90;;;;;;;13.00;85.03;96258.03;5057413;28;20224;-67
2023/06/16 02:47:16;;;;;;;3.10;1.98;;;;;;;13.02;83.98;96256.00;5056310;28;20207;-66
2023/06/16 02:49:44;;;;;;;2.00;1.17;;;;;;;12.87;85.90;96252.63;5056644;28;20209;-68
2023/06/16 02:52:11;;;;;;;3.38;1.58;;;;;;;12.77;86.49;96260.03;5057261;28;20223;-66
2023/06/16 02:54:38;;;;;;;2.28;1.70;;;;;;;12.73;87.41;96266.72;5056926;28;20288;-65
2023/06/16 02:57:07;;;;;;;3.53;1.92;;;;;;;12.59;88.69;96272.88;5056313;28;20578;-65
2023/06/16 02:59:33;;;;;;;2.28;1.48;;;;;;;12.61;89.27;96267.41;5055727;28;20204;-65
2023/06/16 03:02:00;;;;;;;3.63;1.90;;;;;;;12.66;89.74;96267.66;5057258;28;20239;-65
2023/06/16 03:04:27;;;;;;;1.95;1.52;;;;;;;12.77;89.46;96266.13;5055955;28;20248;-65
2023/06/16 03:06:57;;;;;;;2.25;1.83;;;;;;;12.84;88.26;96260.91;5056236;28;20221;-66
2023/06/16 03:09:24;;;;;;;6.57;2.37;;;;;;;12.84;87.95;96255.63;5055330;28;20220;-66
2023/06/16 03:11:50;;;;;;;2.28;1.20;;;;;;;12.86;87.79;96262.38;5055669;28;20231;-66
2023/06/16 03:14:16;;;;;;;2.75;1.95;;;;;;;12.84;87.69;96259.09;5056117;28;20204;-66
2023/06/16 03:16:44;;;;;;;3.85;2.50;;;;;;;12.91;87.76;96261.81;5056436;28;20200;-65
2023/06/16 03:19:11;;;;;;;4.72;2.72;;;;;;;12.95;86.97;96263.88;5055237;28;20200;-66
2023/06/16 03:21:38;;;;;;;2.85;1.45;;;;;;;12.95;87.23;96260.44;5056301;28;20254;-65
2023/06/16 03:24:06;;;;;;;2.83;1.60;;;;;;;13.00;87.08;96265.97;5055160;28;20811;-65
2023/06/16 03:26:34;;;;;;;3.17;1.38;;;;;;;12.73;89.07;96269.38;5055728;28;20730;-66
2023/06/16 03:29:01;;;;;;;2.85;1.52;;;;;;;12.77;89.17;96270.63;5054344;28;20257;-65
2023/06/16 03:31:27;;;;;;;2.30;1.27;;;;;;;12.80;88.84;96272.88;5055672;28;20708;-65
2023/06/16 03:33:54;;;;;;;5.78;2.90;;;;;;;12.91;89.22;96272.41;5055871;28;21091;-66
2023/06/16 03:36:20;;;;;;;3.95;1.70;;;;;;;12.99;89.49;96270.44;5054704;28;20779;-65
2023/06/16 03:38:47;;;;;;;2.28;1.23;;;;;;;12.92;91.05;96269.56;5055168;28;20204;-65
2023/06/16 03:41:15;;;;;;;3.67;1.98;;;;;;;13.02;91.52;96280.66;5055672;28;20228;-65
2023/06/16 03:43:41;;;;;;;3.53;2.05;;;;;;;12.98;92.12;96275.91;5055468;28;20232;-65
2023/06/16 03:46:08;;;;;;;3.17;1.88;;;;;;;13.09;91.75;96280.69;5054891;28;20197;-65
2023/06/16 03:48:34;;;;;;;2.38;1.70;;;;;;;13.10;93.25;96277.84;5055337;28;20282;-65
2023/06/16 03:51:01;;;;;;;4.95;2.03;;;;;;;13.17;92.98;96277.91;5055501;28;20229;-66
2023/06/16 03:53:28;;;;;;;2.88;1.45;;;;;;;13.27;93.31;96283.69;5055663;28;20208;-65
2023/06/16 03:55:55;;;;;;;4.28;1.65;;;;;;;13.26;93.66;96285.50;5055150;28;20634;-65
2023/06/16 03:58:24;;;;;;;2.38;1.90;;;;;;;13.19;94.90;96281.19;5055199;28;20205;-65
2023/06/16 04:00:50;;;;;;;4.88;1.70;;;;;;;13.18;95.03;96287.50;5054723;28;20688;-65
2023/06/16 04:03:17;;;;;;;3.13;1.88;;;;;;;13.20;95.43;96290.75;5054335;28;20228;-66
2023/06/16 04:05:43;;;;;;;3.10;2.00;;;;;;;13.25;95.70;96286.53;5054870;28;20200;-65
2023/06/16 04:08:10;;;;;;;2.67;1.08;;;;;;;13.41;95.45;96297.63;5052979;28;20274;-66
2023/06/16 04:10:36;;;;;;;2.60;1.45;;;;;;;13.85;93.14;96282.25;5055521;28;20224;-65
2023/06/16 04:13:02;;;;;;;5.00;1.45;;;;;;;14.28;89.86;96283.69;5055913;28;20200;-65
2023/06/16 04:15:30;;;;;;;3.15;1.70;;;;;;;14.57;88.99;96280.72;5055035;28;20204;-65
2023/06/16 04:17:57;;;;;;;2.60;1.60;;;;;;;14.74;88.04;96286.28;5054251;28;20696;-65
2023/06/16 04:20:23;;;;;;;3.10;2.13;;;;;;;14.93;87.04;96282.84;5056062;28;20236;-65
2023/06/16 04:22:50;;;;;;;3.78;1.60;;;;;;;15.00;86.11;96278.34;5054675;28;20293;-66
2023/06/16 04:25:17;;;;;;;3.55;2.10;;;;;;;15.02;86.08;96284.28;5055513;28;20605;-65
2023/06/16 04:27:46;;;;;;;4.47;1.55;;;;;;;14.96;86.43;96284.28;5054520;28;20742;-65
2023/06/16 04:30:13;;;;;;;3.30;1.83;;;;;;;14.86;87.54;96283.84;5054763;28;20206;-66
2023/06/16 04:32:41;;;;;;;3.92;2.63;;;;;;;14.88;87.53;96287.94;5054805;28;20211;-66
2023/06/16 04:35:08;;;;;;;2.35;2.05;;;;;;;14.72;89.24;96288.31;5057329;28;20744;-66
2023/06/16 04:37:34;;;;;;;3.90;2.28;;;;;;;14.77;89.36;96285.88;5058611;28;20215;-64
2023/06/16 04:40:01;;;;;;;3.97;1.90;;;;;;;14.72;90.67;96282.19;5058823;28;20204;-65
2023/06/16 04:42:28;;;;;;;5.30;2.53;;;;;;;14.95;90.57;96277.34;5059594;28;20301;-65
2023/06/16 04:44:54;;;;;;;3.38;2.25;;;;;;;14.92;90.63;96285.72;5058440;28;20230;-64
2023/06/16 04:47:21;;;;;;;4.68;2.38;;;;;;;15.14;90.69;96282.66;5058241;28;21095;-65
2023/06/16 04:49:49;;;;;;;3.13;2.03;;;;;;;15.24;89.32;96283.09;5059697;28;20315;-64
2023/06/16 04:52:16;;;;;;;4.68;2.25;;;;;;;15.40;89.74;96272.06;5058737;28;20618;-65
2023/06/16 04:54:42;;;;;;;3.15;2.47;;;;;;;15.53;88.11;96282.66;5058758;28;20211;-65
2023/06/16 04:57:09;;;;;;;2.88;1.63;;;;;;;15.65;87.47;96275.72;5062251;28;20214;-66
2023/06/16 04:59:36;;;;;;;4.15;2.50;;;;;;;15.90;85.45;96275.66;5062989;28;20201;-65
2023/06/16 05:02:02;;;;;;;3.35;2.10;;;;;;;15.91;84.89;96271.97;5061737;28;20236;-65
2023/06/16 05:04:29;;;;;;;3.97;2.72;;;;;;;16.22;82.53;96274.72;5062367;28;20224;-66
2023/06/16 05:06:56;;;;;;;5.78;2.80;;;;;;;16.49;80.54;96284.25;5063614;28;20208;-65
2023/06/16 05:09:23;;;;;;;7.10;2.97;;;;;;;16.61;79.54;96279.88;5062042;28;20205;-66
2023/06/16 05:11:49;;;;;;;5.63;2.83;;;;;;;16.71;77.64;96286.41;5063611;28;20658;-66
2023/06/16 05:14:16;;;;;;;6.43;3.25;;;;;;;16.81;75.82;96285.94;5063977;28;20204;-66
2023/06/16 05:16:42;;;;;;;4.75;2.60;;;;;;;16.72;75.52;96289.88;5064295;28;21017;-65
2023/06/16 05:19:09;;;;;;;2.33;1.92;;;;;;;16.33;75.81;96303.38;5063774;28;20209;-65
2023/06/16 05:21:35;;;;;;;7.65;2.25;;;;;;;16.28;76.02;96299.69;5063652;28;20243;-66
2023/06/16 05:24:03;;;;;;;3.88;2.38;;;;;;;16.42;77.27;96296.78;5065639;28;20236;-65
2023/06/16 05:26:30;;;;;;;4.05;2.75;;;;;;;16.39;77.78;96297.19;5062361;28;20205;-65
2023/06/16 05:28:56;;;;;;;4.82;2.80;;;;;;;16.52;77.67;96289.16;5064121;28;20259;-66
2023/06/16 05:31:23;;;;;;;6.20;2.42;;;;;;;16.67;79.97;96285.16;5064061;28;20602;-65
2023/06/16 05:33:49;;;;;;;3.22;2.22;;;;;;;16.77;80.22;96287.38;5061323;28;21000;-65
2023/06/16 05:36:16;;;;;;;3.25;2.00;;;;;;;16.79;78.06;96285.31;5056667;28;20201;-65
2023/06/16 05:38:42;;;;;;;4.15;2.63;;;;;;;17.02;76.82;96285.56;5058036;28;20204;-65
2023/06/16 05:41:10;;;;;;;4.05;2.30;;;;;;;17.21;77.84;96288.94;5059630;28;20220;-65
2023/06/16 05:43:37;;;;;;;7.15;2.75;;;;;;;17.25;78.49;96290.16;5060908;28;20738;-65
2023/06/16 05:46:03;;;;;;;4.07;2.08;;;;;;;17.36;76.23;96294.81;5056331;28;20208;-65
2023/06/16 05:48:30;;;;;;;4.47;2.30;;;;;;;17.37;72.98;96283.09;5054331;28;20201;-65
2023/06/16 05:50:56;;;;;;;6.03;2.58;;;;;;;17.60;73.14;96288.63;5054221;28;20239;-64
2023/06/16 05:53:23;;;;;;;3.47;2.22;;;;;;;17.81;72.26;96285.56;5056643;28;20201;-65
2023/06/16 05:55:49;;;;;;;6.00;2.55;;;;;;;18.02;72.88;96291.28;5054462;28;20665;-65
2023/06/16 05:58:17;;;;;;;4.13;2.45;;;;;;;18.01;70.81;96291.50;5054160;28;20204;-64
2023/06/16 06:00:44;;;;;;;7.35;3.35;;;;;;;18.21;70.48;96289.47;5054626;28;20239;-65
2023/06/16 06:03:10;;;;;;;5.05;2.15;;;;;;;18.23;71.12;96296.22;5054278;28;20200;-65
2023/06/16 06:05:37;;;;;;;3.17;2.20;;;;;;;18.34;68.85;96290.97;5054437;28;20225;-64
2023/06/16 06:08:03;;;;;;;4.32;2.03;;;;;;;18.49;69.51;96291.38;5055041;28;20251;-64
2023/06/16 06:10:30;;;;;;;4.93;2.63;;;;;;;18.40;70.82;96292.72;5055523;28;20559;-65
2023/06/16 06:12:56;;;;;;;4.65;2.67;;;;;;;18.41;67.37;96294.34;5052809;28;20208;-65
2023/06/16 06:15:24;;;;;;;4.15;2.33;;;;;;;18.31;68.48;96309.25;5055224;28;20205;-64
2023/06/16 06:17:51;;;;;;;3.78;2.10;;;;;;;18.26;69.25;96306.44;5055816;28;20322;-65
2023/06/16 06:20:18;;;;;;;3.70;2.22;;;;;;;18.23;71.16;96306.06;5055060;28;20215;-65
2023/06/16 06:22:44;;;;;;;5.32;2.78;;;;;;;18.29;71.79;96305.19;5056335;28;20204;-64
2023/06/16 06:25:13;;;;;;;4.15;2.42;;;;;;;18.43;71.04;96304.81;5055400;28;20223;-64
2023/06/16 06:27:39;;;;;;;5.78;2.42;;;;;;;18.51;70.26;96308.00;5053573;28;20197;-65
2023/06/16 06:30:07;;;;;;;3.28;2.20;;;;;;;18.57;71.27;96309.78;5051122;28;20211;-65
2023/06/16 06:32:35;;;;;;;6.35;2.90;;;;;;;18.69;70.51;96302.63;5052748;28;20209;-65
2023/06/16 06:35:01;;;;;;;7.15;3.03;;;;;;;18.96;70.42;96311.91;5055838;28;20565;-64
2023/06/16 06:37:31;;;;;;;5.25;2.65;;;;;;;19.13;70.82;96307.59;5051013;28;20201;-65
2023/06/16 06:39:58;;;;;;;7.03;2.40;;;;;;;19.27;69.12;96317.03;5055879;28;20205;-65
2023/06/16 06:42:26;;;;;;;7.72;2.47;;;;;;;19.19;70.02;96318.19;5056351;28;20582;-65
2023/06/16 06:44:53;;;;;;;3.95;2.05;;;;;;;19.30;69.67;96311.25;5056109;28;20235;-65
2023/06/16 06:47:21;;;;;;;11.85;2.40;;;;;;;19.21;68.06;96318.78;5053024;28;20576;-65
2023/06/16 06:49:49;;;;;;;6.03;2.63;;;;;;;19.18;69.51;96316.56;5056515;28;20200;-65
2023/06/16 06:52:16;;;;;;;3.95;2.63;;;;;;;19.23;69.20;96315.88;5054760;28;20221;-65
2023/06/16 06:54:42;;;;;;;4.07;2.03;;;;;;;19.43;69.05;96324.41;5055578;28;20196;-65
2023/06/16 06:57:08;;;;;;;4.10;2.58;;;;;;;19.35;68.52;96320.22;5056122;28;20201;-66
2023/06/16 06:59:35;;;;;;;4.78;2.47;;;;;;;19.48;68.26;96327.22;5054777;28;20209;-65
2023/06/16 07:02:02;;;;;;;5.03;1.75;;;;;;;19.58;66.28;96331.75;5054842;28;20707;-65
2023/06/16 07:04:28;;;;;;;3.35;1.80;;;;;;;19.73;64.28;96329.47;5055440;28;21193;-65
2023/06/16 07:06:56;;;;;;;4.57;2.45;;;;;;;19.97;63.89;96328.47;5057625;28;20787;-65
2023/06/16 07:09:22;;;;;;;2.53;1.67;;;;;;;19.99;62.93;96333.59;5054073;28;20223;-64
2023/06/16 07:11:49;;;;;;;2.13;1.30;;;;;;;20.30;61.39;96321.47;5054920;28;20224;-66
2023/06/16 07:14:15;;;;;;;1.65;1.15;;;;;;;20.33;58.92;96331.69;5053864;28;20196;-65
2023/06/16 07:16:42;;;;;;;2.60;1.73;;;;;;;20.36;60.97;96330.41;5055078;28;20201;-65
2023/06/16 07:19:08;;;;;;;2.75;1.45;;;;;;;20.67;59.62;96330.00;5052429;28;20990;-65
2023/06/16 07:21:34;;;;;;;4.20;1.42;;;;;;;20.63;57.34;96331.53;5055720;28;20316;-65
2023/06/16 07:24:02;;;;;;;6.30;1.20;;;;;;;20.59;56.63;96330.38;5055311;28;20197;-65
2023/06/16 07:26:29;;;;;;;2.33;1.55;;;;;;;20.73;57.25;96331.78;5054969;28;20204;-65
2023/06/16 07:28:55;;;;;;;2.65;1.23;;;;;;;20.76;56.16;96336.66;5054258;28;20201;-64
2023/06/16 07:31:22;;;;;;;2.85;2.20;;;;;;;20.84;57.16;96337.91;5054477;28;20224;-66
2023/06/16 07:33:48;;;;;;;4.68;2.03;;;;;;;21.00;56.73;96339.00;5053779;28;20196;-65
2023/06/16 07:36:15;;;;;;;1.35;1.20;;;;;;;21.02;54.03;96331.56;5054712;28;20677;-65
2023/06/16 07:38:41;;;;;;;2.88;1.48;;;;;;;20.97;56.37;96334.94;5053199;28;20259;-65
2023/06/16 07:41:09;;;;;;;1.52;1.30;;;;;;;21.26;56.76;96335.78;5052506;28;20221;-65
2023/06/16 07:43:36;;;;;;;2.97;1.73;;;;;;;21.32;58.20;96332.94;5053408;28;20681;-65
2023/06/16 07:46:03;;;;;;;2.20;1.50;;;;;;;21.42;53.46;96332.31;5053470;28;20228;-65
2023/06/16 07:48:30;;;;;;;2.58;1.50;;;;;;;21.42;53.90;96329.63;5053280;28;20205;-65
2023/06/16 07:50:57;;;;;;;3.38;1.88;;;;;;;21.52;55.67;96333.31;5053184;28;20684;-65
2023/06/16 07:53:23;;;;;;;2.67;1.90;;;;;;;21.71;53.67;96330.16;5053828;28;20200;-65
2023/06/16 07:55:50;;;;;;;2.13;1.40;;;;;;;21.97;53.81;96336.75;5055640;28;20287;-65
2023/06/16 07:58:19;;;;;;;3.70;2.20;;;;;;;22.20;52.18;96327.47;5053082;28;20238;-65
2023/06/16 08:00:46;;;;;;;3.47;1.55;;;;;;;22.01;52.62;96324.47;5053001;28;20771;-65
2023/06/16 08:03:13;;;;;;;4.03;1.40;;;;;;;22.12;52.19;96327.06;5055510;28;20312;-65
2023/06/16 08:05:40;;;;;;;3.83;1.65;;;;;;;22.10;52.27;96332.66;5054606;28;20229;-65
2023/06/16 08:08:06;;;;;;;2.00;1.45;;;;;;;22.20;51.57;96327.47;5053404;28;20384;-65
2023/06/16 08:10:33;;;;;;;2.67;1.23;;;;;;;22.43;51.25;96323.75;5051125;28;20231;-65
2023/06/16 08:13:00;;;;;;;4.53;1.50;;;;;;;22.69;50.08;96316.63;5054728;28;20683;-66
2023/06/16 08:15:27;;;;;;;2.88;1.73;;;;;;;22.97;50.30;96318.28;5055153;28;20196;-65
2023/06/16 08:17:54;;;;;;;2.53;1.40;;;;;;;22.76;49.00;96311.88;5053328;28;20205;-65
2023/06/16 08:20:21;;;;;;;9.55;1.98;;;;;;;23.02;48.48;96315.69;5050392;28;20677;-65
2023/06/16 08:22:48;;;;;;;2.03;1.42;;;;;;;22.96;44.68;96311.28;5052981;28;20196;-65
2023/06/16 08:25:14;;;;;;;3.70;1.58;;;;;;;23.10;44.38;96307.19;5053625;28;20223;-65
2023/06/16 08:27:41;;;;;;;1.65;1.30;;;;;;;23.20;43.60;96301.91;5053084;28;21041;-65
2023/06/16 08:30:09;;;;;;;2.17;1.50;;;;;;;23.27;43.30;96297.97;5053917;28;20205;-65
2023/06/16 08:32:37;;;;;;;3.47;1.50;;;;;;;23.75;42.02;96300.56;5051535;28;20284;-65
2023/06/16 08:35:03;;;;;;;5.25;1.90;;;;;;;23.81;41.31;96302.25;5049930;28;20196;-65
2023/06/16 08:37:31;;;;;;;1.17;0.95;;;;;;;23.73;39.18;96303.53;5049040;28;20205;-65
2023/06/16 08:39:57;;;;;;;4.90;1.40;;;;;;;23.79;41.08;96302.50;5052649;28;20680;-65
2023/06/16 08:42:24;;;;;;;2.58;1.40;;;;;;;24.17;42.89;96299.53;5051499;28;20220;-65
2023/06/16 08:44:52;;;;;;;2.05;0.93;;;;;;;24.07;38.95;96299.47;5053905;28;20294;-67
2023/06/16 08:47:18;;;;;;;1.63;1.00;;;;;;;23.94;38.13;96298.06;5052918;28;20291;-67
2023/06/16 08:49:46;;;;;;;2.60;1.23;;;;;;;23.60;37.61;96303.09;5052377;28;20209;-67
2023/06/16 08:52:16;;;;;;;2.63;1.17;;;;;;;23.34;37.39;96299.38;5052366;28;20236;-67
2023/06/16 08:54:48;;;;;;;1.60;1.25;;;;;;;23.59;38.54;96296.91;5052940;28;20204;-67
2023/06/16 08:57:18;;;;;;;1.77;1.10;;;;;;;23.71;39.61;96299.47;5053098;28;20211;-67
2023/06/16 08:59:50;;;;;;;1.95;0.90;;;;;;;23.72;37.61;96301.91;5053562;28;20208;-67
2023/06/16 09:02:17;;;;;;;3.80;1.20;;;;;;;23.63;34.19;96295.34;5052316;28;20251;-67
2023/06/16 09:04:43;;;;;;;1.88;1.08;;;;;;;23.88;35.73;96300.97;5052707;28;20193;-68
2023/06/16 09:07:16;;;;;;;1.83;1.30;;;;;;;24.46;38.62;96292.75;5052798;28;20211;-67
2023/06/16 09:09:43;;;;;;;2.42;1.38;;;;;;;24.38;36.76;96290.53;5053401;28;20362;-68
2023/06/16 09:12:11;;;;;;;1.77;1.15;;;;;;;24.45;36.02;96291.94;5052692;28;20307;-68
2023/06/16 09:14:38;;;;;;;1.83;1.08;;;;;;;24.71;36.92;96285.59;5053648;28;20935;-68
2023/06/16 09:17:07;;;;;;;4.28;1.50;;;;;;;24.53;34.11;96285.25;5052269;28;20236;-68
2023/06/16 09:19:35;;;;;;;3.30;1.52;;;;;;;24.48;33.99;96290.59;5052431;28;20888;-67
2023/06/16 09:22:02;;;;;;;0.98;0.88;;;;;;;24.54;33.76;96286.88;5053949;28;20223;-68
2023/06/16 09:24:30;;;;;;;7.18;1.75;;;;;;;24.54;33.01;96284.97;5055829;28;20196;-67
2023/06/16 09:26:59;;;;;;;2.20;1.33;;;;;;;24.73;33.89;96278.06;5056122;28;20220;-67
2023/06/16 09:29:27;;;;;;;2.20;1.40;;;;;;;24.24;34.84;96281.28;5055668;28;20687;-67
2023/06/16 09:31:54;;;;;;;3.15;1.23;;;;;;;23.80;35.14;96287.16;5056704;28;20236;-67
2023/06/16 09:34:21;;;;;;;2.42;1.52;;;;;;;23.85;34.87;96274.53;5056350;28;20208;-67
2023/06/16 09:36:47;;;;;;;2.20;1.30;;;;;;;23.82;36.21;96269.69;5057328;28;20561;-67
2023/06/16 09:39:24;;;;;;;1.98;1.25;;;;;;;24.45;35.31;96273.06;5054052;28;20331;-67
2023/06/16 09:41:54;;;;;;;1.60;0.95;;;;;;;24.71;33.57;96267.53;5055753;28;20713;-67
2023/06/16 09:44:23;;;;;;;1.75;1.08;;;;;;;24.95;34.01;96271.41;5055102;28;20617;-67
2023/06/16 09:46:50;;;;;;;2.80;1.30;;;;;;;24.97;33.25;96258.44;5057085;28;21028;-68
2023/06/16 09:49:20;;;;;;;4.40;1.25;;;;;;;25.21;33.97;96262.31;5056013;28;20311;-67
2023/06/16 09:51:51;;;;;;;2.05;1.20;;;;;;;25.18;33.35;96270.97;5057628;28;20579;-68
2023/06/16 09:54:18;;;;;;;1.95;1.13;;;;;;;25.18;32.91;96271.75;5055904;28;20215;-68
2023/06/16 09:56:46;;;;;;;1.92;1.27;;;;;;;25.05;32.09;96265.25;5057240;28;20204;-68
2023/06/16 09:59:15;;;;;;;2.58;1.10;;;;;;;25.11;32.09;96261.50;5057232;28;20206;-69
2023/06/16 10:01:43;;;;;;;2.10;1.15;;;;;;;25.24;32.16;96261.78;5057278;28;20221;-67
2023/06/16 10:04:12;;;;;;;1.60;1.10;;;;;;;24.99;33.53;96256.31;5055449;28;20200;-69
2023/06/16 10:06:44;;;;;;;1.92;1.15;;;;;;;25.37;34.41;96258.59;5056771;28;20711;-67
2023/06/16 10:09:12;;;;;;;1.42;1.20;;;;;;;25.02;32.07;96261.16;5057081;28;20688;-67
2023/06/16 10:11:39;;;;;;;2.50;1.40;;;;;;;25.02;32.54;96263.88;5057777;28;20246;-66
2023/06/16 10:14:08;;;;;;;3.47;1.65;;;;;;;25.46;32.68;96265.88;5057305;28;20192;-69
2023/06/16 10:16:38;;;;;;;3.08;1.10;;;;;;;25.07;32.02;96263.91;5057435;28;20672;-68
2023/06/16 10:19:07;;;;;;;2.08;1.02;;;;;;;25.32;34.05;96250.50;5056333;28;20577;-67
2023/06/16 10:21:33;;;;;;;2.17;1.25;;;;;;;25.57;33.81;96258.59;5058141;28;20220;-67
2023/06/16 10:24:01;;;;;;;2.13;1.45;;;;;;;25.70;32.34;96269.72;5057496;28;20197;-68
2023/06/16 10:26:29;;;;;;;2.38;1.50;;;;;;;25.51;31.81;96259.66;5056866;28;20220;-69
2023/06/16 10:28:56;;;;;;;2.47;1.00;;;;;;;25.62;31.32;96255.91;5056407;28;20615;-69
2023/06/16 10:31:27;;;;;;;1.95;1.20;;;;;;;25.59;31.29;96261.84;5056867;28;20720;-70
2023/06/16 10:33:57;;;;;;;1.88;1.27;;;;;;;25.94;33.09;96251.84;5057105;28;20343;-69
2023/06/16 10:36:24;;;;;;;2.45;1.50;;;;;;;26.10;31.48;96254.25;5057036;28;20200;-66
2023/06/16 10:38:59;;;;;;;1.95;1.30;;;;;;;26.33;31.66;96253.66;5057263;28;20571;-68
2023/06/16 10:41:29;;;;;;;1.60;1.13;;;;;;;26.29;31.50;96258.00;5055161;28;20227;-68
2023/06/16 10:43:55;;;;;;;2.08;1.40;;;;;;;25.87;30.55;96249.44;5056604;28;20684;-68
2023/06/16 10:46:22;;;;;;;3.90;1.05;;;;;;;25.79;31.35;96262.69;5056853;28;20232;-68
2023/06/16 10:49:20;;;;;;;1.77;0.90;;;;;;;26.42;29.81;96257.47;5055850;28;20844;-69
2023/06/16 10:51:48;;;;;;;2.47;1.77;;;;;;;26.07;31.50;96254.00;5056199;28;20271;-68
2023/06/16 10:54:34;;;;;;;3.53;1.42;;;;;;;25.41;30.80;96262.38;5057566;28;20204;-66
2023/06/16 10:57:02;;;;;;;1.80;0.95;;;;;;;25.21;32.63;96265.81;5056340;28;20192;-67
2023/06/16 10:59:29;;;;;;;3.85;1.90;;;;;;;24.60;33.56;96256.97;5055782;28;20258;-67
2023/06/16 11:01:57;;;;;;;3.22;1.25;;;;;;;24.54;34.80;96262.63;5056808;28;20224;-66
2023/06/16 11:04:26;;;;;;;1.95;1.10;;;;;;;24.74;34.30;96253.53;5056043;28;20246;-67
2023/06/16 11:07:08;;;;;;;1.88;1.13;;;;;;;24.91;36.55;96256.84;5056521;28;20274;-67
2023/06/16 11:09:36;;;;;;;4.28;1.33;;;;;;;24.88;35.91;96262.75;5055796;28;20204;-66
2023/06/16 11:12:03;;;;;;;2.58;1.38;;;;;;;25.08;34.44;96265.53;5056279;28;20224;-66
2023/06/16 11:14:30;;;;;;;1.50;1.25;;;;;;;24.97;35.02;96258.44;5055930;28;20204;-68
2023/06/16 11:16:56;;;;;;;2.92;1.38;;;;;;;25.54;34.35;96267.22;5057130;28;20203;-67
2023/06/16 11:19:24;;;;;;;2.42;1.33;;;;;;;25.47;33.23;96250.47;5055266;28;20208;-68
2023/06/16 11:21:51;;;;;;;2.53;1.40;;;;;;;25.76;32.44;96247.00;5055575;28;20228;-65
2023/06/16 11:24:19;;;;;;;2.40;1.50;;;;;;;26.03;33.17;96259.16;5055589;28;20673;-67
2023/06/16 11:26:46;;;;;;;2.15;1.33;;;;;;;26.41;31.49;96245.03;5056317;28;20216;-68
2023/06/16 11:29:13;;;;;;;3.67;1.60;;;;;;;26.49;30.83;96255.28;5055945;28;20627;-68
2023/06/16 11:31:41;;;;;;;1.90;1.00;;;;;;;26.29;30.38;96228.28;5051264;28;20711;-68
2023/06/16 11:34:07;;;;;;;2.63;1.60;;;;;;;26.22;31.23;96238.59;5054410;28;21601;-69
2023/06/16 11:36:35;;;;;;;3.97;1.50;;;;;;;26.33;30.88;96223.94;5053257;28;20204;-67